sensor_id;sensor_type;location;lat;lon;timestamp;P1;durP1;ratioP1;P2;durP2;ratioP2
71080;SDS011;58740;50.672;18.690;2023-07-20T00:00:07;9.70;;;5.10;;
71080;SDS011;58740;50.672;18.690;2023-07-20T00:03:14;9.80;;;4.50;;
71080;SDS011;58740;50.672;18.690;2023-07-20T00:05:46;9.00;;;5.10;;
71080;SDS011;58740;50.672;18.690;2023-07-20T00:08:15;8.40;;;5.40;;
71080;SDS011;58740;50.672;18.690;2023-07-20T00:10:44;11.80;;;5.20;;
71080;SDS011;58740;50.672;18.690;2023-07-20T00:13:12;10.30;;;5.70;;
71080;SDS011;58740;50.672;18.690;2023-07-20T00:15:40;8.10;;;4.70;;
71080;SDS011;58740;50.672;18.690;2023-07-20T00:18:08;8.90;;;5.00;;
71080;SDS011;58740;50.672;18.690;2023-07-20T00:20:36;9.20;;;4.50;;
71080;SDS011;58740;50.672;18.690;2023-07-20T00:23:04;9.90;;;5.30;;
71080;SDS011;58740;50.672;18.690;2023-07-20T00:25:32;9.30;;;4.70;;
71080;SDS011;58740;50.672;18.690;2023-07-20T00:28:01;10.30;;;4.70;;
71080;SDS011;58740;50.672;18.690;2023-07-20T00:30:29;10.00;;;4.10;;
71080;SDS011;58740;50.672;18.690;2023-07-20T00:32:57;10.10;;;4.70;;
71080;SDS011;58740;50.672;18.690;2023-07-20T00:35:25;6.80;;;3.50;;
71080;SDS011;58740;50.672;18.690;2023-07-20T00:37:52;6.90;;;3.30;;
71080;SDS011;58740;50.672;18.690;2023-07-20T00:40:21;7.30;;;3.10;;
71080;SDS011;58740;50.672;18.690;2023-07-20T00:42:48;9.60;;;3.50;;
71080;SDS011;58740;50.672;18.690;2023-07-20T00:45:16;7.30;;;2.80;;
71080;SDS011;58740;50.672;18.690;2023-07-20T00:47:44;5.90;;;2.80;;
71080;SDS011;58740;50.672;18.690;2023-07-20T00:50:12;7.20;;;3.10;;
71080;SDS011;58740;50.672;18.690;2023-07-20T00:52:40;9.30;;;3.30;;
71080;SDS011;58740;50.672;18.690;2023-07-20T00:55:09;6.60;;;3.00;;
71080;SDS011;58740;50.672;18.690;2023-07-20T00:57:37;8.30;;;3.20;;
71080;SDS011;58740;50.672;18.690;2023-07-20T01:00:06;6.20;;;2.90;;
71080;SDS011;58740;50.672;18.690;2023-07-20T01:02:34;7.60;;;3.10;;
71080;SDS011;58740;50.672;18.690;2023-07-20T01:05:03;6.00;;;2.80;;
71080;SDS011;58740;50.672;18.690;2023-07-20T01:07:39;5.00;;;2.30;;
71080;SDS011;58740;50.672;18.690;2023-07-20T01:10:39;6.40;;;2.60;;
71080;SDS011;58740;50.672;18.690;2023-07-20T01:13:10;6.00;;;2.80;;
71080;SDS011;58740;50.672;18.690;2023-07-20T01:15:38;8.00;;;3.10;;
71080;SDS011;58740;50.672;18.690;2023-07-20T01:18:06;8.50;;;3.20;;
71080;SDS011;58740;50.672;18.690;2023-07-20T01:20:36;12.60;;;3.10;;
71080;SDS011;58740;50.672;18.690;2023-07-20T01:32:00;6.70;;;3.20;;
71080;SDS011;58740;50.672;18.690;2023-07-20T01:34:31;9.40;;;2.90;;
71080;SDS011;58740;50.672;18.690;2023-07-20T01:37:01;7.50;;;2.90;;
71080;SDS011;58740;50.672;18.690;2023-07-20T01:39:31;6.50;;;3.00;;
71080;SDS011;58740;50.672;18.690;2023-07-20T01:42:01;7.80;;;2.80;;
71080;SDS011;58740;50.672;18.690;2023-07-20T01:44:29;7.30;;;2.90;;
71080;SDS011;58740;50.672;18.690;2023-07-20T01:46:57;8.00;;;3.50;;
71080;SDS011;58740;50.672;18.690;2023-07-20T01:49:24;10.00;;;3.40;;
71080;SDS011;58740;50.672;18.690;2023-07-20T01:51:52;6.10;;;2.70;;
71080;SDS011;58740;50.672;18.690;2023-07-20T01:54:20;6.80;;;2.40;;
71080;SDS011;58740;50.672;18.690;2023-07-20T01:56:48;7.00;;;2.90;;
71080;SDS011;58740;50.672;18.690;2023-07-20T01:59:16;10.30;;;2.80;;
71080;SDS011;58740;50.672;18.690;2023-07-20T02:01:44;7.40;;;2.40;;
71080;SDS011;58740;50.672;18.690;2023-07-20T02:04:12;6.70;;;2.70;;
71080;SDS011;58740;50.672;18.690;2023-07-20T02:06:40;7.50;;;2.40;;
71080;SDS011;58740;50.672;18.690;2023-07-20T02:09:08;7.30;;;2.50;;
71080;SDS011;58740;50.672;18.690;2023-07-20T02:11:36;6.10;;;2.60;;
71080;SDS011;58740;50.672;18.690;2023-07-20T02:14:04;6.40;;;2.30;;
71080;SDS011;58740;50.672;18.690;2023-07-20T02:16:31;8.10;;;2.20;;
71080;SDS011;58740;50.672;18.690;2023-07-20T02:18:59;5.60;;;2.40;;
71080;SDS011;58740;50.672;18.690;2023-07-20T02:21:27;5.50;;;2.50;;
71080;SDS011;58740;50.672;18.690;2023-07-20T02:23:55;5.30;;;2.00;;
71080;SDS011;58740;50.672;18.690;2023-07-20T02:26:22;6.90;;;2.40;;
71080;SDS011;58740;50.672;18.690;2023-07-20T02:28:51;5.20;;;2.30;;
71080;SDS011;58740;50.672;18.690;2023-07-20T02:31:19;5.20;;;2.30;;
71080;SDS011;58740;50.672;18.690;2023-07-20T02:33:46;6.20;;;2.00;;
71080;SDS011;58740;50.672;18.690;2023-07-20T02:36:14;6.70;;;2.20;;
71080;SDS011;58740;50.672;18.690;2023-07-20T02:38:44;7.80;;;2.40;;
71080;SDS011;58740;50.672;18.690;2023-07-20T02:41:13;5.00;;;2.10;;
71080;SDS011;58740;50.672;18.690;2023-07-20T02:43:41;4.40;;;2.30;;
71080;SDS011;58740;50.672;18.690;2023-07-20T02:46:09;5.60;;;2.20;;
71080;SDS011;58740;50.672;18.690;2023-07-20T02:48:37;4.60;;;1.90;;
71080;SDS011;58740;50.672;18.690;2023-07-20T02:51:04;7.00;;;2.00;;
71080;SDS011;58740;50.672;18.690;2023-07-20T02:53:32;4.70;;;2.10;;
71080;SDS011;58740;50.672;18.690;2023-07-20T02:56:01;4.40;;;2.00;;
71080;SDS011;58740;50.672;18.690;2023-07-20T02:58:28;5.50;;;1.70;;
71080;SDS011;58740;50.672;18.690;2023-07-20T03:00:56;4.50;;;2.20;;
71080;SDS011;58740;50.672;18.690;2023-07-20T03:03:24;6.70;;;2.30;;
71080;SDS011;58740;50.672;18.690;2023-07-20T03:05:52;5.70;;;2.40;;
71080;SDS011;58740;50.672;18.690;2023-07-20T03:08:22;5.50;;;2.60;;
71080;SDS011;58740;50.672;18.690;2023-07-20T03:10:49;6.40;;;2.00;;
71080;SDS011;58740;50.672;18.690;2023-07-20T03:13:17;7.70;;;2.20;;
71080;SDS011;58740;50.672;18.690;2023-07-20T03:15:45;4.80;;;1.80;;
71080;SDS011;58740;50.672;18.690;2023-07-20T03:18:13;5.80;;;2.50;;
71080;SDS011;58740;50.672;18.690;2023-07-20T03:20:41;3.80;;;1.60;;
71080;SDS011;58740;50.672;18.690;2023-07-20T03:23:09;4.90;;;1.90;;
71080;SDS011;58740;50.672;18.690;2023-07-20T03:25:37;5.60;;;1.90;;
71080;SDS011;58740;50.672;18.690;2023-07-20T03:28:04;6.80;;;1.90;;
71080;SDS011;58740;50.672;18.690;2023-07-20T03:30:34;6.80;;;2.30;;
71080;SDS011;58740;50.672;18.690;2023-07-20T03:33:02;5.30;;;2.20;;
71080;SDS011;58740;50.672;18.690;2023-07-20T03:35:31;5.70;;;2.00;;
71080;SDS011;58740;50.672;18.690;2023-07-20T03:37:59;5.60;;;2.00;;
71080;SDS011;58740;50.672;18.690;2023-07-20T03:40:27;5.90;;;2.20;;
71080;SDS011;58740;50.672;18.690;2023-07-20T03:42:54;6.50;;;2.70;;
71080;SDS011;58740;50.672;18.690;2023-07-20T03:45:22;6.30;;;2.00;;
71080;SDS011;58740;50.672;18.690;2023-07-20T03:47:51;5.20;;;1.80;;
71080;SDS011;58740;50.672;18.690;2023-07-20T03:50:19;6.20;;;2.10;;
71080;SDS011;58740;50.672;18.690;2023-07-20T03:52:47;6.80;;;2.00;;
71080;SDS011;58740;50.672;18.690;2023-07-20T03:55:15;4.20;;;2.10;;
71080;SDS011;58740;50.672;18.690;2023-07-20T03:57:43;4.70;;;2.00;;
71080;SDS011;58740;50.672;18.690;2023-07-20T04:00:11;5.90;;;2.50;;
71080;SDS011;58740;50.672;18.690;2023-07-20T04:02:42;5.70;;;2.40;;
71080;SDS011;58740;50.672;18.690;2023-07-20T04:05:10;6.60;;;2.60;;
71080;SDS011;58740;50.672;18.690;2023-07-20T04:07:38;6.50;;;2.50;;
71080;SDS011;58740;50.672;18.690;2023-07-20T04:10:06;6.40;;;2.70;;
71080;SDS011;58740;50.672;18.690;2023-07-20T04:12:34;5.60;;;2.20;;
71080;SDS011;58740;50.672;18.690;2023-07-20T04:15:02;5.80;;;1.90;;
71080;SDS011;58740;50.672;18.690;2023-07-20T04:17:31;5.10;;;2.70;;
71080;SDS011;58740;50.672;18.690;2023-07-20T04:19:59;7.30;;;2.50;;
71080;SDS011;58740;50.672;18.690;2023-07-20T04:22:27;4.60;;;2.00;;
71080;SDS011;58740;50.672;18.690;2023-07-20T04:24:55;5.90;;;2.60;;
71080;SDS011;58740;50.672;18.690;2023-07-20T04:27:22;6.00;;;2.60;;
71080;SDS011;58740;50.672;18.690;2023-07-20T04:29:50;6.50;;;2.70;;
71080;SDS011;58740;50.672;18.690;2023-07-20T04:32:18;6.70;;;2.70;;
71080;SDS011;58740;50.672;18.690;2023-07-20T04:34:46;6.10;;;2.40;;
71080;SDS011;58740;50.672;18.690;2023-07-20T04:37:14;5.00;;;2.20;;
71080;SDS011;58740;50.672;18.690;2023-07-20T04:39:41;5.90;;;2.50;;
71080;SDS011;58740;50.672;18.690;2023-07-20T04:42:09;6.70;;;2.60;;
71080;SDS011;58740;50.672;18.690;2023-07-20T04:44:37;5.80;;;2.30;;
71080;SDS011;58740;50.672;18.690;2023-07-20T04:47:05;4.70;;;2.00;;
71080;SDS011;58740;50.672;18.690;2023-07-20T04:49:32;4.90;;;2.40;;
71080;SDS011;58740;50.672;18.690;2023-07-20T04:52:00;5.00;;;2.20;;
71080;SDS011;58740;50.672;18.690;2023-07-20T04:54:30;6.00;;;2.40;;
71080;SDS011;58740;50.672;18.690;2023-07-20T04:56:58;5.40;;;2.30;;
71080;SDS011;58740;50.672;18.690;2023-07-20T04:59:25;5.90;;;2.40;;
71080;SDS011;58740;50.672;18.690;2023-07-20T05:01:53;5.80;;;2.10;;
71080;SDS011;58740;50.672;18.690;2023-07-20T05:04:21;6.30;;;2.10;;
71080;SDS011;58740;50.672;18.690;2023-07-20T05:06:49;5.40;;;2.40;;
71080;SDS011;58740;50.672;18.690;2023-07-20T05:09:17;5.70;;;2.10;;
71080;SDS011;58740;50.672;18.690;2023-07-20T05:11:44;5.50;;;2.00;;
71080;SDS011;58740;50.672;18.690;2023-07-20T05:14:14;4.90;;;2.10;;
71080;SDS011;58740;50.672;18.690;2023-07-20T05:16:42;7.10;;;2.50;;
71080;SDS011;58740;50.672;18.690;2023-07-20T05:19:10;4.90;;;2.00;;
71080;SDS011;58740;50.672;18.690;2023-07-20T05:21:38;6.50;;;2.40;;
71080;SDS011;58740;50.672;18.690;2023-07-20T05:24:06;5.70;;;2.20;;
71080;SDS011;58740;50.672;18.690;2023-07-20T05:26:34;4.30;;;2.10;;
71080;SDS011;58740;50.672;18.690;2023-07-20T05:29:02;4.50;;;2.10;;
71080;SDS011;58740;50.672;18.690;2023-07-20T05:31:30;5.40;;;2.40;;
71080;SDS011;58740;50.672;18.690;2023-07-20T05:33:59;5.30;;;2.30;;
71080;SDS011;58740;50.672;18.690;2023-07-20T05:36:27;7.40;;;2.40;;
71080;SDS011;58740;50.672;18.690;2023-07-20T05:38:55;5.10;;;1.90;;
71080;SDS011;58740;50.672;18.690;2023-07-20T05:41:22;4.40;;;1.80;;
71080;SDS011;58740;50.672;18.690;2023-07-20T05:43:50;5.30;;;1.90;;
71080;SDS011;58740;50.672;18.690;2023-07-20T05:46:18;5.20;;;2.10;;
71080;SDS011;58740;50.672;18.690;2023-07-20T05:48:46;4.50;;;1.50;;
71080;SDS011;58740;50.672;18.690;2023-07-20T05:51:14;4.20;;;1.60;;
71080;SDS011;58740;50.672;18.690;2023-07-20T05:53:42;4.80;;;1.70;;
71080;SDS011;58740;50.672;18.690;2023-07-20T05:56:10;4.10;;;1.60;;
71080;SDS011;58740;50.672;18.690;2023-07-20T05:58:37;5.40;;;1.80;;
71080;SDS011;58740;50.672;18.690;2023-07-20T06:01:05;5.40;;;1.90;;
71080;SDS011;58740;50.672;18.690;2023-07-20T06:03:34;4.70;;;1.60;;
71080;SDS011;58740;50.672;18.690;2023-07-20T06:06:02;5.60;;;1.80;;
71080;SDS011;58740;50.672;18.690;2023-07-20T06:08:31;5.90;;;1.80;;
71080;SDS011;58740;50.672;18.690;2023-07-20T06:10:59;4.70;;;2.00;;
71080;SDS011;58740;50.672;18.690;2023-07-20T06:13:27;3.80;;;1.40;;
71080;SDS011;58740;50.672;18.690;2023-07-20T06:15:55;3.40;;;1.40;;
71080;SDS011;58740;50.672;18.690;2023-07-20T06:18:23;4.20;;;1.70;;
71080;SDS011;58740;50.672;18.690;2023-07-20T06:20:51;3.60;;;1.60;;
71080;SDS011;58740;50.672;18.690;2023-07-20T06:23:19;4.00;;;1.50;;
71080;SDS011;58740;50.672;18.690;2023-07-20T06:25:47;5.20;;;1.50;;
71080;SDS011;58740;50.672;18.690;2023-07-20T06:28:15;4.90;;;1.50;;
71080;SDS011;58740;50.672;18.690;2023-07-20T06:30:43;4.10;;;1.60;;
71080;SDS011;58740;50.672;18.690;2023-07-20T06:33:11;4.30;;;1.90;;
71080;SDS011;58740;50.672;18.690;2023-07-20T06:35:41;4.60;;;1.80;;
71080;SDS011;58740;50.672;18.690;2023-07-20T06:38:10;3.60;;;1.50;;
71080;SDS011;58740;50.672;18.690;2023-07-20T06:40:41;4.20;;;1.50;;
71080;SDS011;58740;50.672;18.690;2023-07-20T06:43:09;8.30;;;1.90;;
71080;SDS011;58740;50.672;18.690;2023-07-20T06:45:40;5.40;;;2.00;;
71080;SDS011;58740;50.672;18.690;2023-07-20T06:48:08;4.10;;;1.80;;
71080;SDS011;58740;50.672;18.690;2023-07-20T06:50:36;5.00;;;1.50;;
71080;SDS011;58740;50.672;18.690;2023-07-20T06:53:04;5.50;;;2.40;;
71080;SDS011;58740;50.672;18.690;2023-07-20T06:55:32;6.20;;;2.30;;
71080;SDS011;58740;50.672;18.690;2023-07-20T06:58:09;4.80;;;2.10;;
71080;SDS011;58740;50.672;18.690;2023-07-20T07:00:38;6.00;;;3.50;;
71080;SDS011;58740;50.672;18.690;2023-07-20T07:03:06;8.20;;;3.30;;
71080;SDS011;58740;50.672;18.690;2023-07-20T07:05:36;4.90;;;2.00;;
71080;SDS011;58740;50.672;18.690;2023-07-20T07:08:05;6.60;;;2.50;;
71080;SDS011;58740;50.672;18.690;2023-07-20T07:10:35;6.40;;;2.50;;
71080;SDS011;58740;50.672;18.690;2023-07-20T07:13:03;5.60;;;2.60;;
71080;SDS011;58740;50.672;18.690;2023-07-20T07:15:34;7.50;;;2.80;;
71080;SDS011;58740;50.672;18.690;2023-07-20T07:18:02;5.70;;;3.30;;
71080;SDS011;58740;50.672;18.690;2023-07-20T07:20:31;6.80;;;3.10;;
71080;SDS011;58740;50.672;18.690;2023-07-20T07:22:59;7.00;;;3.50;;
71080;SDS011;58740;50.672;18.690;2023-07-20T07:25:27;6.00;;;3.60;;
71080;SDS011;58740;50.672;18.690;2023-07-20T07:27:56;6.70;;;3.80;;
71080;SDS011;58740;50.672;18.690;2023-07-20T07:30:23;7.00;;;4.20;;
71080;SDS011;58740;50.672;18.690;2023-07-20T07:32:51;7.50;;;3.70;;
71080;SDS011;58740;50.672;18.690;2023-07-20T07:35:19;6.40;;;3.70;;
71080;SDS011;58740;50.672;18.690;2023-07-20T07:37:47;8.30;;;4.10;;
71080;SDS011;58740;50.672;18.690;2023-07-20T07:40:18;8.40;;;4.00;;
71080;SDS011;58740;50.672;18.690;2023-07-20T07:42:46;7.40;;;3.70;;
71080;SDS011;58740;50.672;18.690;2023-07-20T07:45:14;10.60;;;4.50;;
71080;SDS011;58740;50.672;18.690;2023-07-20T07:47:42;7.00;;;3.90;;
71080;SDS011;58740;50.672;18.690;2023-07-20T07:50:10;7.20;;;4.10;;
71080;SDS011;58740;50.672;18.690;2023-07-20T07:52:38;9.00;;;3.60;;
71080;SDS011;58740;50.672;18.690;2023-07-20T07:55:13;8.10;;;3.90;;
71080;SDS011;58740;50.672;18.690;2023-07-20T07:57:44;6.90;;;3.90;;
71080;SDS011;58740;50.672;18.690;2023-07-20T08:00:12;8.60;;;4.80;;
71080;SDS011;58740;50.672;18.690;2023-07-20T08:02:43;6.80;;;3.30;;
71080;SDS011;58740;50.672;18.690;2023-07-20T08:05:11;7.00;;;3.40;;
71080;SDS011;58740;50.672;18.690;2023-07-20T08:07:39;5.80;;;3.10;;
71080;SDS011;58740;50.672;18.690;2023-07-20T08:10:07;6.90;;;3.20;;
71080;SDS011;58740;50.672;18.690;2023-07-20T08:12:35;6.60;;;3.70;;
71080;SDS011;58740;50.672;18.690;2023-07-20T08:15:04;5.70;;;2.80;;
71080;SDS011;58740;50.672;18.690;2023-07-20T08:17:32;6.40;;;2.40;;
71080;SDS011;58740;50.672;18.690;2023-07-20T08:20:00;4.40;;;2.40;;
71080;SDS011;58740;50.672;18.690;2023-07-20T08:22:28;4.70;;;2.10;;
71080;SDS011;58740;50.672;18.690;2023-07-20T08:24:56;4.40;;;2.30;;
71080;SDS011;58740;50.672;18.690;2023-07-20T08:27:24;6.00;;;2.30;;
71080;SDS011;58740;50.672;18.690;2023-07-20T08:29:52;6.70;;;2.60;;
71080;SDS011;58740;50.672;18.690;2023-07-20T08:32:20;5.90;;;2.30;;
71080;SDS011;58740;50.672;18.690;2023-07-20T08:34:48;4.50;;;2.00;;
71080;SDS011;58740;50.672;18.690;2023-07-20T08:37:16;4.40;;;2.00;;
71080;SDS011;58740;50.672;18.690;2023-07-20T08:39:44;5.60;;;2.70;;
71080;SDS011;58740;50.672;18.690;2023-07-20T08:42:12;5.90;;;2.70;;
71080;SDS011;58740;50.672;18.690;2023-07-20T08:44:42;7.50;;;2.50;;
71080;SDS011;58740;50.672;18.690;2023-07-20T08:47:13;7.30;;;2.40;;
71080;SDS011;58740;50.672;18.690;2023-07-20T08:49:44;5.90;;;2.30;;
71080;SDS011;58740;50.672;18.690;2023-07-20T08:52:18;5.20;;;2.20;;
71080;SDS011;58740;50.672;18.690;2023-07-20T08:54:46;4.50;;;2.20;;
71080;SDS011;58740;50.672;18.690;2023-07-20T08:57:14;5.30;;;2.20;;
71080;SDS011;58740;50.672;18.690;2023-07-20T08:59:43;4.70;;;2.20;;
71080;SDS011;58740;50.672;18.690;2023-07-20T09:02:15;4.00;;;2.20;;
71080;SDS011;58740;50.672;18.690;2023-07-20T09:04:46;6.90;;;2.50;;
71080;SDS011;58740;50.672;18.690;2023-07-20T09:07:15;6.00;;;2.20;;
71080;SDS011;58740;50.672;18.690;2023-07-20T09:09:43;5.80;;;2.20;;
71080;SDS011;58740;50.672;18.690;2023-07-20T09:12:15;4.70;;;2.10;;
71080;SDS011;58740;50.672;18.690;2023-07-20T09:14:44;6.90;;;2.20;;
71080;SDS011;58740;50.672;18.690;2023-07-20T09:17:13;3.90;;;2.10;;
71080;SDS011;58740;50.672;18.690;2023-07-20T09:19:48;4.00;;;2.00;;
71080;SDS011;58740;50.672;18.690;2023-07-20T09:22:16;6.10;;;2.30;;
71080;SDS011;58740;50.672;18.690;2023-07-20T09:24:45;5.20;;;2.10;;
71080;SDS011;58740;50.672;18.690;2023-07-20T09:27:13;3.50;;;1.80;;
71080;SDS011;58740;50.672;18.690;2023-07-20T09:29:51;5.60;;;2.20;;
71080;SDS011;58740;50.672;18.690;2023-07-20T09:32:20;4.40;;;2.20;;
71080;SDS011;58740;50.672;18.690;2023-07-20T09:34:52;7.00;;;3.40;;
71080;SDS011;58740;50.672;18.690;2023-07-20T09:37:21;5.60;;;2.10;;
71080;SDS011;58740;50.672;18.690;2023-07-20T09:39:53;4.90;;;2.20;;
71080;SDS011;58740;50.672;18.690;2023-07-20T09:42:24;5.40;;;2.40;;
71080;SDS011;58740;50.672;18.690;2023-07-20T09:44:57;6.40;;;2.60;;
71080;SDS011;58740;50.672;18.690;2023-07-20T09:47:25;5.40;;;2.20;;
71080;SDS011;58740;50.672;18.690;2023-07-20T09:49:59;5.50;;;2.70;;
71080;SDS011;58740;50.672;18.690;2023-07-20T09:52:31;6.90;;;2.70;;
71080;SDS011;58740;50.672;18.690;2023-07-20T09:55:03;9.00;;;2.60;;
71080;SDS011;58740;50.672;18.690;2023-07-20T09:57:33;4.40;;;2.40;;
71080;SDS011;58740;50.672;18.690;2023-07-20T10:00:04;5.40;;;2.40;;
71080;SDS011;58740;50.672;18.690;2023-07-20T10:02:44;5.20;;;2.40;;
71080;SDS011;58740;50.672;18.690;2023-07-20T10:05:14;5.60;;;2.80;;
71080;SDS011;58740;50.672;18.690;2023-07-20T10:07:50;4.60;;;2.50;;
71080;SDS011;58740;50.672;18.690;2023-07-20T10:10:41;7.40;;;2.40;;
71080;SDS011;58740;50.672;18.690;2023-07-20T10:13:18;5.80;;;2.20;;
71080;SDS011;58740;50.672;18.690;2023-07-20T10:16:02;4.20;;;2.10;;
71080;SDS011;58740;50.672;18.690;2023-07-20T10:21:53;6.10;;;2.40;;
71080;SDS011;58740;50.672;18.690;2023-07-20T10:24:32;5.30;;;2.30;;
71080;SDS011;58740;50.672;18.690;2023-07-20T10:27:02;4.50;;;1.80;;
71080;SDS011;58740;50.672;18.690;2023-07-20T10:29:31;4.50;;;2.10;;
71080;SDS011;58740;50.672;18.690;2023-07-20T10:31:59;6.40;;;2.30;;
71080;SDS011;58740;50.672;18.690;2023-07-20T10:34:28;4.90;;;2.10;;
71080;SDS011;58740;50.672;18.690;2023-07-20T10:36:56;4.10;;;2.00;;
71080;SDS011;58740;50.672;18.690;2023-07-20T10:39:28;4.90;;;2.00;;
71080;SDS011;58740;50.672;18.690;2023-07-20T10:42:09;4.30;;;1.80;;
71080;SDS011;58740;50.672;18.690;2023-07-20T10:44:38;5.30;;;2.00;;
71080;SDS011;58740;50.672;18.690;2023-07-20T10:47:12;5.80;;;2.00;;
71080;SDS011;58740;50.672;18.690;2023-07-20T10:50:01;4.30;;;2.20;;
71080;SDS011;58740;50.672;18.690;2023-07-20T10:52:40;4.40;;;1.90;;
71080;SDS011;58740;50.672;18.690;2023-07-20T10:55:14;4.90;;;2.20;;
71080;SDS011;58740;50.672;18.690;2023-07-20T10:57:42;5.10;;;1.90;;
71080;SDS011;58740;50.672;18.690;2023-07-20T11:00:13;5.20;;;1.90;;
71080;SDS011;58740;50.672;18.690;2023-07-20T11:02:47;4.30;;;1.50;;
71080;SDS011;58740;50.672;18.690;2023-07-20T11:05:44;5.30;;;1.70;;
71080;SDS011;58740;50.672;18.690;2023-07-20T11:08:12;5.50;;;1.70;;
71080;SDS011;58740;50.672;18.690;2023-07-20T11:10:40;5.00;;;1.60;;
71080;SDS011;58740;50.672;18.690;2023-07-20T11:13:18;3.90;;;1.70;;
71080;SDS011;58740;50.672;18.690;2023-07-20T11:18:29;6.20;;;1.90;;
71080;SDS011;58740;50.672;18.690;2023-07-20T11:20:59;4.40;;;1.80;;
71080;SDS011;58740;50.672;18.690;2023-07-20T11:23:27;4.00;;;2.00;;
71080;SDS011;58740;50.672;18.690;2023-07-20T11:25:56;5.30;;;1.80;;
71080;SDS011;58740;50.672;18.690;2023-07-20T11:28:24;4.30;;;1.60;;
71080;SDS011;58740;50.672;18.690;2023-07-20T11:30:52;5.70;;;1.70;;
71080;SDS011;58740;50.672;18.690;2023-07-20T11:33:23;4.60;;;2.10;;
71080;SDS011;58740;50.672;18.690;2023-07-20T11:35:51;5.50;;;1.90;;
71080;SDS011;58740;50.672;18.690;2023-07-20T11:38:20;3.90;;;2.10;;
71080;SDS011;58740;50.672;18.690;2023-07-20T11:40:48;5.60;;;2.40;;
71080;SDS011;58740;50.672;18.690;2023-07-20T11:43:16;7.20;;;2.30;;
71080;SDS011;58740;50.672;18.690;2023-07-20T11:45:47;4.60;;;2.20;;
71080;SDS011;58740;50.672;18.690;2023-07-20T11:48:18;5.10;;;2.50;;
71080;SDS011;58740;50.672;18.690;2023-07-20T11:50:46;5.00;;;2.30;;
71080;SDS011;58740;50.672;18.690;2023-07-20T11:53:15;5.70;;;2.30;;
71080;SDS011;58740;50.672;18.690;2023-07-20T11:55:43;4.90;;;2.20;;
71080;SDS011;58740;50.672;18.690;2023-07-20T11:58:13;5.20;;;1.80;;
71080;SDS011;58740;50.672;18.690;2023-07-20T12:00:44;6.00;;;1.80;;
71080;SDS011;58740;50.672;18.690;2023-07-20T12:03:13;5.80;;;3.00;;
71080;SDS011;58740;50.672;18.690;2023-07-20T12:05:41;5.30;;;2.20;;
71080;SDS011;58740;50.672;18.690;2023-07-20T12:08:12;4.50;;;2.30;;
71080;SDS011;58740;50.672;18.690;2023-07-20T12:10:40;5.30;;;2.30;;
71080;SDS011;58740;50.672;18.690;2023-07-20T12:13:11;3.70;;;2.10;;
71080;SDS011;58740;50.672;18.690;2023-07-20T12:15:39;4.20;;;2.00;;
71080;SDS011;58740;50.672;18.690;2023-07-20T12:18:07;4.70;;;1.80;;
71080;SDS011;58740;50.672;18.690;2023-07-20T12:20:36;4.60;;;2.60;;
71080;SDS011;58740;50.672;18.690;2023-07-20T12:23:18;4.80;;;2.70;;
71080;SDS011;58740;50.672;18.690;2023-07-20T12:25:46;4.80;;;2.50;;
71080;SDS011;58740;50.672;18.690;2023-07-20T12:28:17;4.60;;;2.10;;
71080;SDS011;58740;50.672;18.690;2023-07-20T12:30:46;4.70;;;2.30;;
71080;SDS011;58740;50.672;18.690;2023-07-20T12:33:23;5.10;;;2.30;;
71080;SDS011;58740;50.672;18.690;2023-07-20T12:35:51;5.10;;;2.60;;
71080;SDS011;58740;50.672;18.690;2023-07-20T12:38:23;5.30;;;2.50;;
71080;SDS011;58740;50.672;18.690;2023-07-20T12:40:51;5.30;;;2.20;;
71080;SDS011;58740;50.672;18.690;2023-07-20T12:43:19;4.00;;;2.60;;
71080;SDS011;58740;50.672;18.690;2023-07-20T12:45:47;4.50;;;2.50;;
71080;SDS011;58740;50.672;18.690;2023-07-20T12:48:15;4.30;;;2.20;;
71080;SDS011;58740;50.672;18.690;2023-07-20T12:50:43;5.40;;;2.80;;
71080;SDS011;58740;50.672;18.690;2023-07-20T12:53:11;3.80;;;2.20;;
71080;SDS011;58740;50.672;18.690;2023-07-20T12:55:39;5.90;;;2.30;;
71080;SDS011;58740;50.672;18.690;2023-07-20T12:58:08;5.50;;;2.50;;
71080;SDS011;58740;50.672;18.690;2023-07-20T13:00:36;3.20;;;1.80;;
71080;SDS011;58740;50.672;18.690;2023-07-20T13:03:04;4.80;;;1.80;;
71080;SDS011;58740;50.672;18.690;2023-07-20T13:05:35;3.90;;;1.90;;
71080;SDS011;58740;50.672;18.690;2023-07-20T13:08:06;3.60;;;2.10;;
71080;SDS011;58740;50.672;18.690;2023-07-20T13:10:38;3.00;;;1.70;;
71080;SDS011;58740;50.672;18.690;2023-07-20T13:13:06;4.90;;;2.30;;
71080;SDS011;58740;50.672;18.690;2023-07-20T13:15:42;4.70;;;2.30;;
71080;SDS011;58740;50.672;18.690;2023-07-20T13:18:11;4.30;;;1.80;;
71080;SDS011;58740;50.672;18.690;2023-07-20T13:20:39;4.20;;;1.80;;
71080;SDS011;58740;50.672;18.690;2023-07-20T13:23:06;3.40;;;2.00;;
71080;SDS011;58740;50.672;18.690;2023-07-20T13:25:35;3.50;;;1.70;;
71080;SDS011;58740;50.672;18.690;2023-07-20T13:28:03;3.50;;;1.70;;
71080;SDS011;58740;50.672;18.690;2023-07-20T13:30:30;5.20;;;1.70;;
71080;SDS011;58740;50.672;18.690;2023-07-20T13:32:58;3.20;;;1.50;;
71080;SDS011;58740;50.672;18.690;2023-07-20T13:35:28;3.20;;;1.40;;
71080;SDS011;58740;50.672;18.690;2023-07-20T13:38:15;3.20;;;1.50;;
71080;SDS011;58740;50.672;18.690;2023-07-20T13:40:44;3.90;;;1.90;;
71080;SDS011;58740;50.672;18.690;2023-07-20T13:43:11;4.20;;;1.70;;
71080;SDS011;58740;50.672;18.690;2023-07-20T13:45:39;3.70;;;1.90;;
71080;SDS011;58740;50.672;18.690;2023-07-20T13:48:07;3.60;;;1.70;;
71080;SDS011;58740;50.672;18.690;2023-07-20T13:50:35;3.40;;;1.80;;
71080;SDS011;58740;50.672;18.690;2023-07-20T13:53:06;3.40;;;1.40;;
71080;SDS011;58740;50.672;18.690;2023-07-20T13:55:37;3.30;;;1.70;;
71080;SDS011;58740;50.672;18.690;2023-07-20T13:58:08;3.70;;;1.40;;
71080;SDS011;58740;50.672;18.690;2023-07-20T14:00:40;3.60;;;1.70;;
71080;SDS011;58740;50.672;18.690;2023-07-20T14:03:08;4.20;;;1.50;;
71080;SDS011;58740;50.672;18.690;2023-07-20T14:05:39;2.80;;;1.30;;
71080;SDS011;58740;50.672;18.690;2023-07-20T14:08:10;4.50;;;1.70;;
71080;SDS011;58740;50.672;18.690;2023-07-20T14:10:38;3.50;;;1.70;;
71080;SDS011;58740;50.672;18.690;2023-07-20T14:13:09;3.90;;;1.50;;
71080;SDS011;58740;50.672;18.690;2023-07-20T14:15:38;3.70;;;1.50;;
71080;SDS011;58740;50.672;18.690;2023-07-20T14:18:07;2.20;;;1.20;;
71080;SDS011;58740;50.672;18.690;2023-07-20T14:20:35;2.40;;;1.20;;
71080;SDS011;58740;50.672;18.690;2023-07-20T14:23:05;2.80;;;1.20;;
71080;SDS011;58740;50.672;18.690;2023-07-20T14:25:34;1.60;;;0.90;;
71080;SDS011;58740;50.672;18.690;2023-07-20T14:28:05;3.90;;;1.50;;
71080;SDS011;58740;50.672;18.690;2023-07-20T14:30:33;3.30;;;1.50;;
71080;SDS011;58740;50.672;18.690;2023-07-20T14:33:01;3.10;;;1.30;;
71080;SDS011;58740;50.672;18.690;2023-07-20T14:35:29;3.50;;;1.30;;
71080;SDS011;58740;50.672;18.690;2023-07-20T14:37:56;4.30;;;1.30;;
71080;SDS011;58740;50.672;18.690;2023-07-20T14:40:24;4.40;;;1.40;;
71080;SDS011;58740;50.672;18.690;2023-07-20T14:42:52;3.20;;;1.40;;
71080;SDS011;58740;50.672;18.690;2023-07-20T14:45:20;3.50;;;1.40;;
71080;SDS011;58740;50.672;18.690;2023-07-20T14:47:48;3.40;;;1.30;;
71080;SDS011;58740;50.672;18.690;2023-07-20T14:50:22;3.60;;;1.70;;
71080;SDS011;58740;50.672;18.690;2023-07-20T14:52:50;3.70;;;1.10;;
71080;SDS011;58740;50.672;18.690;2023-07-20T14:55:18;5.10;;;1.30;;
71080;SDS011;58740;50.672;18.690;2023-07-20T14:57:48;2.90;;;1.40;;
71080;SDS011;58740;50.672;18.690;2023-07-20T15:00:16;2.90;;;1.30;;